Weather History for Perryton, TX

Change the Weather History Date:

Friday, September 20, 2013

  Actual Average Record
Temperature  
Mean Temperature 64 °F -  
Max Temperature 72 °F 82 °F 100 °F (1980)
Min Temperature 55 °F 52 °F 38 °F (1971)
Degree Days  
Heating Degree Days 2    
Growing Degree Days 14 (Base 50)    
Moisture  
Dew Point 53 °F    
Average Humidity 72    
Maximum Humidity 96    
Minimum Humidity 35    
Precipitation  
Precipitation 0.04 in - - ()
Sea Level Pressure  
Sea Level Pressure 30.11 in    
Wind  
Wind Speed 8 mph (ENE)    
Max Wind Speed 17 mph    
Max Gust Speed 20 mph    
Visibility 10 miles    
Events      
Averages and records for this station are not official NWS values.
T = Trace of Precipitation, MM = Missing Value Source: NWS Daily Summary

Daily Weather History Graph

Daily Weather History Graph

Search for Another Location

Airport:

Trip Planner

Search our weather history database for the weather conditions in past years. The results will help you decide how hot, cold, wet, or windy it might be!

Date:

Astronomy

Sep. 20, 2013 Rise Set
Actual Time 7:29 AM CDT 7:42 PM CDT
Civil Twilight 7:03 AM CDT 8:08 PM CDT
Nautical Twilight 6:33 AM CDT 8:38 PM CDT
Astronomical Twilight 6:03 AM CDT 9:08 PM CDT
Moon 8:21 PM CDT (9/20) 8:42 AM CDT (9/20)
Length of Visible Light 13h 04m
Length of Day
12h 12m
Full, 98% of the Moon is Illuminated
Sep 20
Full
Sep 26
Last Quarter
Oct 4
New
Oct 11
First Quarter
Oct 18
Full

Hourly Weather History & Observations

Time (CDT) Temp. Dew Point Humidity Pressure Visibility Wind Dir Wind Speed Gust Speed Precip Events Conditions
12:15 AM 63.1 °F 61.7 °F 95% 30.08 in 10.0 mi Calm Calm - N/A   Unknown
12:35 AM 63.1 °F 61.7 °F 95% 30.08 in 10.0 mi Calm Calm - N/A   Unknown
12:55 AM 63.5 °F 61.7 °F 94% 30.09 in 10.0 mi Calm Calm - N/A   Unknown
1:15 AM 63.5 °F 61.9 °F 94% 30.09 in 10.0 mi East 3.5 mph - N/A   Unknown
1:35 AM 63.5 °F 61.7 °F 94% 30.07 in 10.0 mi Calm Calm - N/A   Unknown
1:55 AM 63.5 °F 61.9 °F 94% 30.08 in 10.0 mi North 5.8 mph - N/A   Unknown
2:15 AM 63.9 °F 62.4 °F 95% 30.09 in 10.0 mi North 8.1 mph - N/A   Unknown
2:35 AM 63.7 °F 62.4 °F 96% 30.09 in 10.0 mi NNE 4.6 mph - 0.01 in   Unknown
2:55 AM 63.3 °F 61.5 °F 94% 30.09 in 10.0 mi NNE 10.4 mph - 0.01 in   Unknown
3:15 AM 63.1 °F 61.2 °F 93% 30.09 in 10.0 mi NNE 12.7 mph - N/A   Unknown
3:35 AM 62.2 °F 59.9 °F 92% 30.08 in 10.0 mi NNE 17.3 mph - N/A   Unknown
3:55 AM 61.9 °F 59.9 °F 93% 30.08 in 10.0 mi NE 13.8 mph - N/A   Unknown
4:15 AM 61.9 °F 59.4 °F 91% 30.09 in 10.0 mi NNE 9.2 mph - N/A   Unknown
4:35 AM 61.9 °F 59.4 °F 91% 30.09 in 10.0 mi NNE 10.4 mph - N/A   Unknown
4:55 AM 60.8 °F 57.4 °F 88% 30.09 in 10.0 mi NNE 15.0 mph - N/A   Unknown
5:15 AM 60.4 °F 56.5 °F 87% 30.10 in 10.0 mi NNE 15.0 mph - 0.01 in   Unknown
5:35 AM 59.4 °F 55.2 °F 86% 30.10 in 10.0 mi NNE 15.0 mph 19.6 mph 0.01 in   Unknown
5:55 AM 59.0 °F 53.4 °F 82% 30.10 in 10.0 mi NNE 11.5 mph - 0.01 in   Unknown
6:15 AM 59.0 °F 52.3 °F 79% 30.10 in 10.0 mi NE 13.8 mph - N/A   Unknown
6:35 AM 59.0 °F 52.3 °F 79% 30.10 in 10.0 mi NE 10.4 mph - N/A   Unknown
6:55 AM 58.8 °F 52.7 °F 80% 30.11 in 10.0 mi NNE 11.5 mph 16.1 mph N/A   Unknown
7:15 AM 58.1 °F 52.9 °F 83% 30.12 in 10.0 mi NNE 6.9 mph - N/A   Unknown
7:35 AM 58.1 °F 53.6 °F 85% 30.13 in 10.0 mi NNE 10.4 mph - N/A   Unknown
7:55 AM 58.1 °F 53.8 °F 86% 30.14 in 10.0 mi NNE 9.2 mph - N/A   Unknown
8:15 AM 58.1 °F 54.0 °F 86% 30.14 in 10.0 mi NNE 10.4 mph - N/A   Unknown
8:35 AM 58.1 °F 53.2 °F 84% 30.14 in 10.0 mi NNE 12.7 mph - N/A   Unknown
8:55 AM 58.3 °F 53.4 °F 84% 30.14 in 10.0 mi NNE 11.5 mph - N/A   Unknown
9:15 AM 58.3 °F 53.2 °F 83% 30.15 in 10.0 mi NNE 11.5 mph - N/A   Unknown
9:35 AM 58.6 °F 52.3 °F 80% 30.15 in 10.0 mi NE 15.0 mph - 0.01 in   Unknown
9:55 AM 59.0 °F 52.2 °F 78% 30.15 in 10.0 mi NE 16.1 mph - 0.01 in   Unknown
10:15 AM 59.2 °F 51.3 °F 75% 30.16 in 10.0 mi NE 16.1 mph - N/A   Unknown
10:35 AM 59.4 °F 50.7 °F 73% 30.17 in 10.0 mi NE 12.7 mph - N/A   Unknown
10:55 AM 59.9 °F 50.4 °F 71% 30.17 in 10.0 mi NE 15.0 mph - N/A   Unknown
11:15 AM 60.4 °F 50.5 °F 70% 30.17 in 10.0 mi ENE 15.0 mph - N/A   Unknown
11:35 AM 61.2 °F 50.7 °F 69% 30.17 in 10.0 mi NE 16.1 mph - N/A   Unknown
11:55 AM 61.2 °F 50.9 °F 69% 30.17 in 10.0 mi ENE 10.4 mph - N/A   Unknown
12:15 PM 62.1 °F 51.3 °F 68% 30.17 in 10.0 mi NE 10.4 mph - N/A   Unknown
12:35 PM 62.8 °F 51.3 °F 66% 30.16 in 10.0 mi NE 10.4 mph - N/A   Unknown
12:55 PM 64.8 °F 51.8 °F 63% 30.15 in 10.0 mi ENE 8.1 mph - N/A   Unknown
1:15 PM 66.0 °F 51.8 °F 60% 30.15 in 10.0 mi ENE 11.5 mph - N/A   Unknown
1:35 PM 66.2 °F 52.7 °F 62% 30.14 in 10.0 mi ENE 8.1 mph - N/A   Unknown
1:55 PM 67.1 °F 52.2 °F 59% 30.14 in 10.0 mi NE 9.2 mph - N/A   Unknown
2:15 PM 68.0 °F 52.7 °F 58% 30.12 in 10.0 mi NNE 8.1 mph - N/A   Unknown
2:35 PM 69.4 °F 53.2 °F 56% 30.12 in 10.0 mi NE 6.9 mph - N/A   Unknown
2:55 PM 69.4 °F 50.2 °F 50% 30.12 in 10.0 mi NE 6.9 mph - N/A   Unknown
3:15 PM 70.5 °F 48.9 °F 46% 30.11 in 10.0 mi NE 10.4 mph - N/A   Unknown
3:35 PM 70.5 °F 49.3 °F 47% 30.11 in 10.0 mi ENE 8.1 mph - N/A   Unknown
3:55 PM 70.3 °F 47.5 °F 44% 30.10 in 10.0 mi ENE 8.1 mph - N/A   Unknown
4:15 PM 71.8 °F 45.5 °F 39% 30.10 in 10.0 mi ENE 9.2 mph - N/A   Unknown
4:35 PM 72.0 °F 42.8 °F 35% 30.09 in 10.0 mi ENE 6.9 mph - N/A   Unknown
4:55 PM 72.0 °F 43.3 °F 36% 30.09 in 10.0 mi East 9.2 mph - N/A   Unknown
5:15 PM 72.5 °F 44.1 °F 36% 30.09 in 10.0 mi East 10.4 mph - N/A   Unknown
5:35 PM 72.0 °F 43.2 °F 35% 30.09 in 10.0 mi East 10.4 mph - N/A   Unknown
5:55 PM 71.8 °F 43.2 °F 36% 30.09 in 10.0 mi East 9.2 mph - N/A   Unknown
6:15 PM 71.1 °F 42.3 °F 35% 30.09 in 10.0 mi East 5.8 mph - N/A   Unknown
6:35 PM 70.7 °F 44.6 °F 39% 30.09 in 10.0 mi East 5.8 mph - N/A   Unknown
6:55 PM 69.6 °F 45.5 °F 42% 30.09 in 10.0 mi SE 6.9 mph - 0.01 in   Unknown
7:15 PM 68.4 °F 46.6 °F 46% 30.09 in 10.0 mi ESE 5.8 mph - N/A   Unknown
7:35 PM 66.7 °F 48.4 °F 52% 30.09 in 10.0 mi SE 4.6 mph - N/A   Unknown
7:55 PM 64.9 °F 50.7 °F 60% 30.09 in 10.0 mi SE 4.6 mph - N/A   Unknown
8:15 PM 63.3 °F 52.5 °F 68% 30.10 in 10.0 mi SE 5.8 mph - N/A   Unknown
8:35 PM 61.7 °F 52.7 °F 72% 30.10 in 10.0 mi SE 5.8 mph - N/A   Unknown
8:55 PM 61.2 °F 51.8 °F 71% 30.11 in 10.0 mi SE 5.8 mph - N/A   Unknown
9:15 PM 60.3 °F 51.8 °F 74% 30.12 in 10.0 mi SE 5.8 mph - N/A   Unknown
9:35 PM 59.4 °F 52.0 °F 77% 30.12 in 10.0 mi SE 5.8 mph - N/A   Unknown
9:55 PM 58.5 °F 52.0 °F 79% 30.12 in 10.0 mi SE 4.6 mph - N/A   Unknown
10:15 PM 58.1 °F 51.8 °F 80% 30.13 in 10.0 mi SSE 5.8 mph - N/A   Unknown
10:35 PM 57.4 °F 52.2 °F 83% 30.12 in 10.0 mi South 5.8 mph - N/A   Unknown
10:55 PM 57.2 °F 52.3 °F 84% 30.12 in 10.0 mi South 6.9 mph - N/A   Unknown
11:15 PM 56.8 °F 51.4 °F 82% 30.12 in 10.0 mi South 5.8 mph - N/A   Unknown
11:35 PM 55.9 °F 51.1 °F 84% 30.12 in 10.0 mi SSW 4.6 mph - N/A   Unknown
11:55 PM 55.4 °F 51.3 °F 86% 30.12 in 10.0 mi SW 5.8 mph - N/A   Unknown